createdAt,value
2017-04-12T00:00:13.216Z,0
2017-04-12T00:01:24.256Z,0
2017-04-12T00:02:35.549Z,0
2017-04-12T00:03:46.555Z,0
2017-04-12T00:04:57.567Z,0
2017-04-12T00:06:08.572Z,0
2017-04-12T00:07:19.772Z,0
2017-04-12T00:08:30.789Z,0
2017-04-12T00:09:41.791Z,0
2017-04-12T00:10:52.785Z,0
2017-04-12T00:12:03.786Z,0
2017-04-12T00:13:14.981Z,0
2017-04-12T00:14:26.228Z,0
2017-04-12T00:15:37.232Z,0
2017-04-12T00:16:48.236Z,0
2017-04-12T00:17:59.239Z,0
2017-04-12T00:19:10.239Z,0
2017-04-12T00:20:21.224Z,0
2017-04-12T00:21:32.227Z,0
2017-04-12T00:22:43.427Z,0
2017-04-12T00:23:54.482Z,0
2017-04-12T00:25:05.479Z,0
2017-04-12T00:26:16.681Z,0
2017-04-12T00:27:27.680Z,0
2017-04-12T00:28:38.685Z,0
2017-04-12T00:29:49.691Z,0
2017-04-12T00:31:00.893Z,0
2017-04-12T00:32:11.905Z,0
2017-04-12T00:33:22.909Z,0
2017-04-12T00:34:33.964Z,0
2017-04-12T00:35:44.964Z,0
2017-04-12T00:36:56.176Z,0
2017-04-12T00:38:07.189Z,0
2017-04-12T00:39:18.395Z,0
2017-04-12T00:40:29.599Z,0
2017-04-12T00:41:40.612Z,0
2017-04-12T00:42:52.223Z,0
2017-04-12T00:44:03.234Z,0
2017-04-12T00:45:14.239Z,0
2017-04-12T00:46:25.238Z,0
2017-04-12T00:47:36.229Z,0
2017-04-12T00:48:47.243Z,0
2017-04-12T00:49:58.251Z,0
2017-04-12T00:51:09.251Z,0
2017-04-12T00:52:20.270Z,0
2017-04-12T00:53:31.278Z,0
2017-04-12T00:54:42.285Z,0
2017-04-12T00:55:53.337Z,0
2017-04-12T00:57:04.540Z,0
2017-04-12T00:58:15.550Z,0
2017-04-12T00:59:26.770Z,0
2017-04-12T01:00:37.774Z,0
2017-04-12T01:01:48.777Z,0
2017-04-12T02:04:30.582Z,0
2017-04-12T02:05:41.823Z,0
2017-04-12T02:06:52.846Z,0
2017-04-12T02:08:03.877Z,0
2017-04-12T02:09:15.524Z,0
2017-04-12T02:10:26.547Z,0
2017-04-12T02:11:37.772Z,0
2017-04-12T02:12:48.798Z,0
2017-04-12T02:14:00.234Z,0
2017-04-12T02:15:11.544Z,0
2017-04-12T02:16:22.584Z,0
2017-04-12T02:17:33.805Z,0
2017-04-12T02:18:44.844Z,0
2017-04-12T02:19:56.067Z,0
2017-04-12T02:21:07.091Z,0
2017-04-12T02:22:18.120Z,0
2017-04-12T02:23:29.198Z,0
2017-04-12T02:24:40.231Z,0
2017-04-12T02:25:51.501Z,0
2017-04-12T02:27:02.739Z,0
2017-04-12T02:28:13.756Z,0
2017-04-12T02:29:24.980Z,0
2017-04-12T02:30:36.001Z,0
2017-04-12T02:31:47.042Z,0
2017-04-12T02:32:58.071Z,0
2017-04-12T02:34:09.107Z,0
2017-04-12T02:35:20.139Z,0
2017-04-12T02:36:31.424Z,0
2017-04-12T02:37:42.458Z,0
2017-04-12T02:38:53.693Z,0
2017-04-12T02:40:04.714Z,0
2017-04-12T02:41:15.735Z,0
2017-04-12T02:42:27.015Z,0
2017-04-12T02:43:38.258Z,0
2017-04-12T02:44:49.303Z,0
2017-04-12T02:46:00.333Z,0
2017-04-12T02:47:11.368Z,0
2017-04-12T02:48:22.397Z,0
2017-04-12T02:49:33.428Z,0
2017-04-12T02:50:44.447Z,0
2017-04-12T02:51:55.479Z,0
2017-04-12T02:53:06.496Z,0
2017-04-12T02:54:17.570Z,0
2017-04-12T02:55:28.612Z,0
2017-04-12T02:56:39.697Z,0
2017-04-12T02:57:50.725Z,0
2017-04-12T02:59:01.762Z,0
2017-04-12T03:00:12.795Z,0
2017-04-12T03:01:23.822Z,0
2017-04-12T03:02:34.854Z,0
2017-04-12T03:03:45.941Z,0
2017-04-12T03:04:56.973Z,0
2017-04-12T03:06:08.009Z,0
2017-04-12T03:07:19.051Z,0
2017-04-12T03:08:30.080Z,0
2017-04-12T03:09:41.106Z,0
2017-04-12T03:10:52.329Z,0
2017-04-12T03:12:03.359Z,0
2017-04-12T03:13:14.391Z,0
2017-04-12T03:14:25.672Z,0
2017-04-12T03:15:36.687Z,0
2017-04-12T03:16:47.723Z,0
2017-04-12T03:17:59.155Z,0
2017-04-12T03:19:10.379Z,0
2017-04-12T03:20:21.416Z,0
2017-04-12T03:21:32.447Z,0
2017-04-12T03:22:43.473Z,0
2017-04-12T03:23:54.511Z,0
2017-04-12T03:25:05.583Z,0
2017-04-12T03:26:16.620Z,0
2017-04-12T03:27:27.656Z,0
2017-04-12T03:28:38.691Z,0
2017-04-12T03:29:49.733Z,0
2017-04-12T03:31:00.761Z,0
2017-04-12T03:32:11.783Z,0
2017-04-12T03:33:22.820Z,0
2017-04-12T03:34:33.845Z,0
2017-04-12T03:35:44.872Z,0
2017-04-12T03:36:55.909Z,0
2017-04-12T03:38:06.948Z,0
2017-04-12T03:39:18.183Z,0
2017-04-12T03:40:29.503Z,0
2017-04-12T03:41:40.756Z,0
2017-04-12T03:42:51.801Z,0
2017-04-12T03:44:03.030Z,0
2017-04-12T03:45:14.256Z,0
2017-04-12T03:46:25.287Z,0
2017-04-12T03:47:36.324Z,0
2017-04-12T03:48:47.350Z,0
2017-04-12T03:49:58.391Z,0
2017-04-12T03:51:09.468Z,0
2017-04-12T03:52:20.700Z,0
2017-04-12T03:53:31.737Z,0
2017-04-12T03:54:42.978Z,0
2017-04-12T03:55:54.004Z,0
2017-04-12T03:57:05.239Z,0
2017-04-12T03:58:16.268Z,0
2017-04-12T03:59:27.302Z,0
2017-04-12T04:00:38.336Z,0
2017-04-12T04:01:49.618Z,0
2017-04-12T04:03:00.851Z,0
2017-04-12T04:04:11.878Z,0
2017-04-12T04:05:22.909Z,0
2017-04-12T04:06:34.131Z,0
2017-04-12T04:07:45.167Z,0
2017-04-12T04:08:56.398Z,0
2017-04-12T04:10:07.440Z,0
2017-04-12T04:11:18.507Z,4
2017-04-12T04:12:29.531Z,4
2017-04-12T04:13:40.564Z,0
2017-04-12T04:14:51.595Z,4
2017-04-12T04:16:02.626Z,4
2017-04-12T04:17:13.655Z,8
2017-04-12T04:18:24.934Z,8
2017-04-12T04:19:36.161Z,8
2017-04-12T04:20:47.199Z,8
2017-04-12T04:21:58.244Z,12
2017-04-12T04:23:09.278Z,12
2017-04-12T04:24:20.558Z,16
2017-04-12T04:25:31.804Z,16
2017-04-12T04:26:42.857Z,20
2017-04-12T04:27:54.084Z,24
2017-04-12T04:29:05.562Z,24
2017-04-12T04:30:16.590Z,28
2017-04-12T04:31:27.614Z,32
2017-04-12T04:32:38.641Z,36
2017-04-12T04:33:49.667Z,40
2017-04-12T04:35:00.896Z,48
2017-04-12T04:36:12.120Z,52
2017-04-12T04:37:23.350Z,56
2017-04-12T04:38:34.380Z,64
2017-04-12T04:39:45.457Z,72
2017-04-12T04:40:56.699Z,80
2017-04-12T04:42:07.729Z,92
2017-04-12T04:43:18.751Z,108
2017-04-12T04:44:29.783Z,124
2017-04-12T04:45:40.831Z,144
2017-04-12T04:46:51.857Z,164
2017-04-12T04:48:02.886Z,184
2017-04-12T04:49:14.126Z,208
2017-04-12T04:50:25.353Z,228
2017-04-12T04:51:36.370Z,264
2017-04-12T04:52:47.404Z,288
2017-04-12T04:53:58.637Z,324
2017-04-12T04:55:09.917Z,352
2017-04-12T04:56:20.943Z,380
2017-04-12T04:57:31.963Z,408
2017-04-12T04:58:43.407Z,436
2017-04-12T04:59:54.438Z,476
2017-04-12T05:01:05.465Z,508
2017-04-12T05:02:16.704Z,548
2017-04-12T05:03:27.734Z,600
2017-04-12T05:04:38.973Z,652
2017-04-12T05:05:50.273Z,716
2017-04-12T05:07:01.317Z,776
2017-04-12T05:08:12.537Z,844
2017-04-12T05:09:23.564Z,912
2017-04-12T05:10:34.589Z,980
2017-04-12T05:11:45.814Z,1036
2017-04-12T05:12:56.852Z,1080
2017-04-12T05:14:07.880Z,1112
2017-04-12T05:15:18.918Z,1124
2017-04-12T05:16:30.398Z,1144
2017-04-12T05:17:41.421Z,1188
2017-04-12T05:18:52.841Z,1248
2017-04-12T05:20:03.872Z,1316
2017-04-12T05:21:14.904Z,1364
2017-04-12T05:22:25.938Z,1396
2017-04-12T05:23:37.170Z,1444
2017-04-12T05:24:48.404Z,1512
2017-04-12T05:25:59.431Z,1600
2017-04-12T05:27:10.456Z,1672
2017-04-12T05:28:21.497Z,1740
2017-04-12T05:29:32.530Z,1796
2017-04-12T05:30:43.565Z,1848
2017-04-12T05:31:54.596Z,1888
2017-04-12T05:33:05.668Z,1916
2017-04-12T05:34:16.688Z,1948
2017-04-12T05:35:27.940Z,1980
2017-04-12T05:36:38.968Z,2008
2017-04-12T05:37:50.191Z,2048
2017-04-12T05:39:01.232Z,2092
2017-04-12T05:40:12.253Z,2144
2017-04-12T05:41:23.288Z,2208
2017-04-12T05:42:34.322Z,2256
2017-04-12T05:43:45.408Z,2304
2017-04-12T05:44:56.423Z,2348
2017-04-12T05:46:07.495Z,2384
2017-04-12T05:47:18.528Z,2404
2017-04-12T05:48:29.769Z,2388
2017-04-12T05:49:40.841Z,2360
2017-04-12T05:50:51.875Z,2324
2017-04-12T05:52:02.907Z,2292
2017-04-12T05:53:13.934Z,2288
2017-04-12T05:54:25.218Z,2296
2017-04-12T05:55:36.241Z,2332
2017-04-12T05:56:47.481Z,2396
2017-04-12T05:57:58.519Z,2504
2017-04-12T05:59:09.552Z,2708
2017-04-12T06:00:20.575Z,3036
2017-04-12T06:01:31.806Z,3312
2017-04-12T06:02:42.843Z,3512
2017-04-12T06:03:53.867Z,3692
2017-04-12T06:05:04.897Z,3820
2017-04-12T06:06:15.933Z,3904
2017-04-12T06:07:26.972Z,3964
2017-04-12T06:08:38.202Z,3992
2017-04-12T06:09:49.279Z,4104
2017-04-12T06:11:00.301Z,4336
2017-04-12T06:12:11.738Z,4672
2017-04-12T06:13:22.762Z,5128
2017-04-12T06:14:33.803Z,5556
2017-04-12T06:15:44.839Z,6136
2017-04-12T06:16:55.863Z,6764
2017-04-12T06:18:06.886Z,7468
2017-04-12T06:19:17.919Z,8056
2017-04-12T06:20:28.997Z,9764
2017-04-12T06:21:40.218Z,10604
2017-04-12T06:22:51.249Z,10236
2017-04-12T06:24:02.277Z,9652
2017-04-12T06:25:13.322Z,9688
2017-04-12T06:26:24.347Z,9872
2017-04-12T06:27:35.371Z,9364
2017-04-12T06:28:46.403Z,8996
2017-04-12T06:29:57.436Z,8496
2017-04-12T06:31:08.514Z,7732
2017-04-12T06:32:19.546Z,7432
2017-04-12T06:33:30.587Z,7504
2017-04-12T06:34:41.621Z,7632
2017-04-12T06:35:52.651Z,7760
2017-04-12T06:37:03.740Z,8416
2017-04-12T06:38:14.772Z,9408
2017-04-12T06:39:25.817Z,9728
2017-04-12T06:40:36.851Z,8692
2017-04-12T06:41:48.086Z,9008
2017-04-12T06:42:59.314Z,9572
2017-04-12T06:44:10.747Z,10272
2017-04-12T06:45:21.771Z,9632
2017-04-12T06:46:32.800Z,10172
2017-04-12T06:47:43.832Z,9316
2017-04-12T06:48:54.870Z,8772
2017-04-12T06:50:05.905Z,8260
2017-04-12T06:51:16.930Z,8236
2017-04-12T06:52:28.228Z,8004
2017-04-12T06:53:39.267Z,7644
2017-04-12T06:54:50.306Z,7260
2017-04-12T06:56:01.532Z,7476
2017-04-12T06:57:12.559Z,7876
2017-04-12T06:58:23.784Z,9148
2017-04-12T06:59:34.818Z,11204
2017-04-12T07:00:45.850Z,13852
2017-04-12T07:01:56.882Z,16320
2017-04-12T07:03:07.972Z,15488
2017-04-12T07:04:19.011Z,15488
2017-04-12T07:05:30.039Z,13500
2017-04-12T07:06:41.083Z,13380
2017-04-12T07:07:52.113Z,14444
2017-04-12T07:09:03.144Z,15168
2017-04-12T07:10:14.236Z,14008
2017-04-12T07:11:25.257Z,12868
2017-04-12T07:12:36.291Z,13372
2017-04-12T07:13:47.377Z,14212
2017-04-12T07:14:58.614Z,15776
2017-04-12T07:16:09.629Z,17504
2017-04-12T07:17:20.861Z,16064
2017-04-12T07:18:31.890Z,16640
2017-04-12T07:19:43.374Z,14596
2017-04-12T07:20:54.410Z,13136
2017-04-12T07:22:05.479Z,11872
2017-04-12T07:23:16.506Z,10584
2017-04-12T07:24:27.535Z,10004
2017-04-12T07:25:38.566Z,9540
2017-04-12T07:26:49.799Z,10092
2017-04-12T07:28:00.861Z,10240
2017-04-12T07:29:12.093Z,10284
2017-04-12T07:30:23.167Z,10336
2017-04-12T07:31:34.203Z,9884
2017-04-12T07:32:45.239Z,9428
2017-04-12T07:33:56.276Z,9156
2017-04-12T07:35:07.322Z,9084
2017-04-12T07:36:18.352Z,8728
2017-04-12T07:37:29.581Z,8940
2017-04-12T07:38:40.608Z,8584
2017-04-12T07:39:51.648Z,8212
2017-04-12T07:41:02.724Z,8188
2017-04-12T07:42:13.948Z,8008
2017-04-12T07:43:25.168Z,7128
2017-04-12T07:44:36.222Z,5892
2017-04-12T07:45:47.245Z,5496
2017-04-12T07:46:58.470Z,5176
2017-04-12T07:48:09.511Z,4768
2017-04-12T07:49:20.545Z,4440
2017-04-12T07:50:31.579Z,4548
2017-04-12T07:51:43.063Z,5036
2017-04-12T07:52:54.312Z,5276
2017-04-12T07:54:05.342Z,5544
2017-04-12T07:55:16.358Z,6148
2017-04-12T07:56:27.584Z,6764
2017-04-12T07:57:38.834Z,6448
2017-04-12T07:58:50.069Z,5812
2017-04-12T08:00:01.115Z,5876
2017-04-12T08:01:12.146Z,6220
2017-04-12T08:02:23.170Z,6548
2017-04-12T08:03:34.198Z,6912
2017-04-12T08:04:45.430Z,7768
2017-04-12T08:05:56.485Z,7620
2017-04-12T08:07:07.521Z,7384
2017-04-12T08:08:18.540Z,7372
2017-04-12T08:09:29.568Z,7168
2017-04-12T08:10:40.593Z,7312
2017-04-12T08:11:51.609Z,8032
2017-04-12T08:13:02.684Z,9104
2017-04-12T08:14:13.715Z,10904
2017-04-12T08:15:24.738Z,12592
2017-04-12T08:16:35.768Z,15296
2017-04-12T08:17:46.991Z,22784
2017-04-12T08:18:58.022Z,21984
2017-04-12T08:20:09.253Z,18496
2017-04-12T08:21:20.475Z,15488
2017-04-12T08:22:31.507Z,13688
2017-04-12T08:23:42.797Z,12584
2017-04-12T08:24:53.818Z,12060
2017-04-12T08:26:04.839Z,11376
2017-04-12T08:27:16.325Z,10920
2017-04-12T08:28:27.559Z,9912
2017-04-12T08:29:38.589Z,10072
2017-04-12T08:30:49.826Z,10064
2017-04-12T08:32:00.854Z,9908
2017-04-12T08:33:12.084Z,10004
2017-04-12T08:34:23.567Z,9420
2017-04-12T08:35:34.604Z,9820
2017-04-12T08:36:45.629Z,9372
2017-04-12T08:37:56.663Z,8928
2017-04-12T08:39:07.694Z,8912
2017-04-12T08:40:18.711Z,8588
2017-04-12T08:41:29.744Z,8836
2017-04-12T08:42:40.776Z,9336
2017-04-12T08:43:52.020Z,9068
2017-04-12T08:45:03.041Z,9508
2017-04-12T08:46:14.064Z,10056
2017-04-12T08:47:25.090Z,10344
2017-04-12T08:48:36.124Z,10980
2017-04-12T08:49:47.230Z,11920
2017-04-12T08:50:58.253Z,11140
2017-04-12T08:52:09.291Z,11272
2017-04-12T08:53:20.315Z,10592
2017-04-12T08:54:31.355Z,9936
2017-04-12T08:55:42.375Z,10508
2017-04-12T08:56:53.805Z,9596
2017-04-12T08:58:04.844Z,9788
2017-04-12T08:59:16.274Z,10364
2017-04-12T09:00:27.295Z,10912
2017-04-12T09:01:38.318Z,9896
2017-04-12T09:02:49.346Z,10496
2017-04-12T09:04:00.579Z,10716
2017-04-12T09:05:11.863Z,11220
2017-04-12T09:06:23.099Z,11164
2017-04-12T09:07:34.135Z,10040
2017-04-12T09:08:45.180Z,15456
2017-04-12T09:09:56.215Z,23808
2017-04-12T09:11:07.248Z,41152
2017-04-12T09:12:18.274Z,34432
2017-04-12T09:13:29.306Z,28512
2017-04-12T09:14:40.347Z,30592
2017-04-12T09:15:51.369Z,51168
2017-04-12T09:17:02.605Z,37280
2017-04-12T09:18:13.831Z,34720
2017-04-12T09:19:24.854Z,23232
2017-04-12T09:20:35.925Z,19488
2017-04-12T09:21:46.958Z,19776
2017-04-12T09:22:58.012Z,33664
2017-04-12T09:24:09.047Z,40096
2017-04-12T09:25:20.084Z,48480
2017-04-12T09:26:31.127Z,32608
2017-04-12T09:27:42.175Z,37920
2017-04-12T09:28:53.211Z,31872
2017-04-12T09:30:04.243Z,23520
2017-04-12T09:31:15.283Z,41568
2017-04-12T09:32:26.313Z,47168
2017-04-12T09:33:37.403Z,25376
2017-04-12T09:34:48.450Z,27360
2017-04-12T09:35:59.689Z,31168
2017-04-12T09:37:10.722Z,21696
2017-04-12T09:38:21.771Z,14040
2017-04-12T09:39:32.816Z,16000
2017-04-12T09:40:43.856Z,12200
2017-04-12T09:41:54.899Z,12904
2017-04-12T09:43:06.125Z,13932
2017-04-12T09:44:17.357Z,15616
2017-04-12T09:45:28.394Z,12052
2017-04-12T09:46:39.485Z,18400
2017-04-12T09:47:50.545Z,23936
2017-04-12T09:49:01.788Z,29472
2017-04-12T09:50:12.835Z,43680
2017-04-12T09:51:24.076Z,40896
2017-04-12T09:52:35.315Z,40800
2017-04-12T09:53:46.348Z,38816
2017-04-12T09:54:57.388Z,33248
2017-04-12T09:56:08.645Z,18240
2017-04-12T09:57:19.681Z,20384
2017-04-12T09:58:30.722Z,16128
2017-04-12T09:59:41.939Z,47264
2017-04-12T10:00:52.987Z,17792
2017-04-12T10:02:04.031Z,33056
2017-04-12T10:03:15.064Z,28000
2017-04-12T10:04:26.106Z,34688
2017-04-12T10:05:37.552Z,26304
2017-04-12T10:06:48.597Z,22208
2017-04-12T10:07:59.847Z,26016
2017-04-12T10:09:10.883Z,28928
2017-04-12T10:10:21.926Z,27808
2017-04-12T10:11:32.958Z,23552
2017-04-12T10:12:43.998Z,19328
2017-04-12T10:13:55.031Z,16064
2017-04-12T10:15:06.073Z,15872
2017-04-12T10:16:17.125Z,14856
2017-04-12T10:17:28.211Z,17568
2017-04-12T10:18:39.249Z,16032
2017-04-12T10:19:50.278Z,12720
2017-04-12T10:21:01.322Z,11564
2017-04-12T10:22:12.561Z,11124
2017-04-12T10:23:23.800Z,11900
2017-04-12T10:24:34.834Z,13096
2017-04-12T10:25:45.867Z,11608
2017-04-12T10:26:56.898Z,12248
2017-04-12T10:28:08.380Z,12904
2017-04-12T10:29:19.417Z,11004
2017-04-12T10:30:30.445Z,11048
2017-04-12T10:31:41.472Z,10668
2017-04-12T10:32:52.500Z,14372
2017-04-12T10:34:03.533Z,18592
2017-04-12T10:35:14.570Z,23232
2017-04-12T10:36:25.595Z,28352
2017-04-12T10:37:36.824Z,31936
2017-04-12T10:38:47.867Z,26112
2017-04-12T10:39:58.906Z,19872
2017-04-12T10:41:09.938Z,14428
2017-04-12T10:42:20.975Z,16640
2017-04-12T10:43:32.008Z,20320
2017-04-12T10:44:43.043Z,21568
2017-04-12T10:45:54.276Z,19104
2017-04-12T10:47:05.306Z,14228
2017-04-12T10:48:16.545Z,12828
2017-04-12T10:49:27.770Z,12168
2017-04-12T10:50:38.810Z,11948
2017-04-12T10:51:49.832Z,11644
2017-04-12T10:53:01.066Z,10964
2017-04-12T10:54:12.151Z,10752
2017-04-12T10:55:23.181Z,10788
2017-04-12T10:56:34.202Z,10892
2017-04-12T10:57:45.222Z,11188
2017-04-12T10:58:56.499Z,10916
2017-04-12T11:00:07.538Z,9540
2017-04-12T11:01:18.578Z,8620
2017-04-12T11:02:29.607Z,8464
2017-04-12T11:03:40.667Z,8088
2017-04-12T11:04:51.709Z,8632
2017-04-12T11:06:02.740Z,9692
2017-04-12T11:07:13.982Z,10056
2017-04-12T11:08:25.005Z,9984
2017-04-12T11:09:36.031Z,8860
2017-04-12T11:10:47.057Z,7256
2017-04-12T11:11:58.100Z,6972
2017-04-12T11:13:09.136Z,7232
2017-04-12T11:14:20.166Z,7168
2017-04-12T11:15:31.251Z,6688
2017-04-12T11:16:42.492Z,6404
2017-04-12T11:17:53.526Z,6572
2017-04-12T11:19:04.560Z,6616
2017-04-12T11:20:15.597Z,5984
2017-04-12T11:21:26.829Z,5480
2017-04-12T11:22:37.863Z,4956
2017-04-12T11:23:48.904Z,4996
2017-04-12T11:25:00.147Z,5200
2017-04-12T11:26:11.608Z,5492
2017-04-12T11:27:22.681Z,5880
2017-04-12T11:28:33.731Z,5876
2017-04-12T11:29:44.959Z,6560
2017-04-12T11:30:55.990Z,7140
2017-04-12T11:32:07.016Z,7340
2017-04-12T11:33:18.044Z,6624
2017-04-12T11:34:29.074Z,6004
2017-04-12T11:35:40.318Z,5692
2017-04-12T11:36:51.554Z,5640
2017-04-12T11:38:02.590Z,5300
2017-04-12T11:39:13.692Z,4816
2017-04-12T11:40:24.967Z,4772
2017-04-12T11:41:36.190Z,4568
2017-04-12T11:42:47.226Z,4216
2017-04-12T11:43:58.263Z,3476
2017-04-12T11:45:09.295Z,3072
2017-04-12T11:46:20.325Z,3008
2017-04-12T11:47:31.408Z,2968
2017-04-12T11:48:42.430Z,3708
2017-04-12T11:49:53.670Z,4844
2017-04-12T11:51:04.735Z,5636
2017-04-12T11:52:15.776Z,6072
2017-04-12T11:53:26.811Z,6044
2017-04-12T11:54:37.886Z,5728
2017-04-12T11:55:48.967Z,4792
2017-04-12T11:56:59.998Z,4652
2017-04-12T11:58:11.226Z,5388
2017-04-12T11:59:22.253Z,6136
2017-04-12T12:00:33.289Z,5512
2017-04-12T12:01:44.314Z,4512
2017-04-12T12:02:55.330Z,3800
2017-04-12T12:04:06.360Z,3576
2017-04-12T12:05:17.393Z,3252
2017-04-12T12:06:28.439Z,2948
2017-04-12T12:07:39.464Z,2820
2017-04-12T12:08:50.482Z,2808
2017-04-12T12:10:01.717Z,2920
2017-04-12T12:11:12.753Z,3064
2017-04-12T12:12:23.809Z,3152
2017-04-12T12:13:34.826Z,3268
2017-04-12T12:14:46.050Z,3144
2017-04-12T12:15:57.085Z,3312
2017-04-12T12:17:08.134Z,3316
2017-04-12T12:18:19.156Z,3148
2017-04-12T12:19:30.397Z,3076
2017-04-12T12:20:41.633Z,2692
2017-04-12T12:21:52.908Z,2720
2017-04-12T12:23:03.939Z,2944
2017-04-12T12:24:14.975Z,2604
2017-04-12T12:25:26.011Z,2544
2017-04-12T12:26:37.045Z,2792
2017-04-12T12:27:48.057Z,2900
2017-04-12T12:28:59.087Z,2828
2017-04-12T12:30:10.133Z,3044
2017-04-12T12:31:21.145Z,3384
2017-04-12T12:32:32.174Z,3652
2017-04-12T12:33:43.194Z,3660
2017-04-12T12:34:54.626Z,4080
2017-04-12T12:36:05.657Z,4112
2017-04-12T12:37:16.744Z,3508
2017-04-12T12:38:27.769Z,3448
2017-04-12T12:39:38.798Z,3716
2017-04-12T12:40:49.825Z,4248
2017-04-12T12:42:00.879Z,4328
2017-04-12T12:43:13.487Z,4180
2017-04-12T12:44:24.527Z,4088
2017-04-12T12:45:35.557Z,4068
2017-04-12T12:46:46.584Z,4032
2017-04-12T12:47:57.613Z,4020
2017-04-12T12:49:08.680Z,3784
2017-04-12T12:50:19.712Z,3764
2017-04-12T12:51:30.736Z,4296
2017-04-12T12:52:41.973Z,4800
2017-04-12T12:53:52.998Z,5204
2017-04-12T12:55:04.013Z,5392
2017-04-12T12:56:15.449Z,5140
2017-04-12T12:57:26.480Z,4712
2017-04-12T12:58:37.713Z,4280
2017-04-12T12:59:48.737Z,4264
2017-04-12T13:00:59.968Z,3956
2017-04-12T13:02:10.988Z,3652
2017-04-12T13:03:22.006Z,3440
2017-04-12T13:04:33.034Z,3224
2017-04-12T13:05:44.255Z,2960
2017-04-12T13:06:55.493Z,2748
2017-04-12T13:08:06.736Z,2832
2017-04-12T13:09:17.774Z,3036
2017-04-12T13:10:28.791Z,3096
2017-04-12T13:11:39.820Z,3104
2017-04-12T13:12:50.849Z,3456
2017-04-12T13:14:02.067Z,3660
2017-04-12T13:15:13.293Z,3672
2017-04-12T13:16:24.331Z,3752
2017-04-12T13:17:35.357Z,3744
2017-04-12T13:18:46.640Z,4160
2017-04-12T13:19:57.659Z,4376
2017-04-12T13:21:08.681Z,4508
2017-04-12T13:22:19.696Z,4324
2017-04-12T13:23:30.733Z,3980
2017-04-12T13:24:41.756Z,4116
2017-04-12T13:25:52.786Z,4164
2017-04-12T13:27:03.833Z,4268
2017-04-12T13:28:15.304Z,4260
2017-04-12T13:29:26.329Z,4148
2017-04-12T13:30:37.579Z,3880
2017-04-12T13:31:48.605Z,3432
2017-04-12T13:32:59.633Z,3172
2017-04-12T13:34:10.658Z,2908
2017-04-12T13:35:21.728Z,2976
2017-04-12T13:36:32.954Z,3116
2017-04-12T13:37:43.979Z,3180
2017-04-12T13:38:54.999Z,3280
2017-04-12T13:40:06.236Z,3224
2017-04-12T13:41:17.466Z,2972
2017-04-12T13:42:28.499Z,2812
2017-04-12T13:43:39.531Z,2368
2017-04-12T13:44:50.612Z,2116
2017-04-12T13:46:01.636Z,2084
2017-04-12T13:47:12.863Z,2272
2017-04-12T13:48:23.896Z,2640
2017-04-12T13:49:34.960Z,2816
2017-04-12T13:50:45.988Z,2948
2017-04-12T13:51:57.009Z,2980
2017-04-12T13:53:08.241Z,2900
2017-04-12T13:54:19.275Z,2896
2017-04-12T13:55:30.560Z,2824
2017-04-12T13:56:41.627Z,2760
2017-04-12T13:57:52.681Z,2672
2017-04-12T13:59:03.717Z,2668
2017-04-12T14:00:14.959Z,2840
2017-04-12T14:01:26.442Z,2972
2017-04-12T14:02:37.519Z,2948
2017-04-12T14:03:48.955Z,3024
2017-04-12T14:05:00.181Z,3380
2017-04-12T14:06:11.206Z,3504
2017-04-12T14:07:22.449Z,3456
2017-04-12T14:08:33.470Z,3324
2017-04-12T14:09:44.517Z,3520
2017-04-12T14:10:55.549Z,4148
2017-04-12T14:12:06.561Z,4160
2017-04-12T14:13:17.579Z,3708
2017-04-12T14:14:29.011Z,3456
2017-04-12T14:15:40.043Z,3284
2017-04-12T14:16:51.119Z,3508
2017-04-12T14:18:02.152Z,3964
2017-04-12T14:19:13.212Z,4344
2017-04-12T14:20:24.434Z,4508
2017-04-12T14:21:35.453Z,4832
2017-04-12T14:22:46.493Z,4972
2017-04-12T14:23:57.520Z,5644
2017-04-12T14:25:08.546Z,5668
2017-04-12T14:26:19.565Z,5360
2017-04-12T14:27:30.648Z,5488
2017-04-12T14:28:41.664Z,5860
2017-04-12T14:29:52.900Z,6012
2017-04-12T14:31:03.931Z,5992
2017-04-12T14:32:14.965Z,5924
2017-04-12T14:33:26.199Z,5768
2017-04-12T14:34:37.235Z,5652
2017-04-12T14:35:48.263Z,5872
2017-04-12T14:36:59.488Z,6104
2017-04-12T14:38:10.763Z,6052
2017-04-12T14:39:21.789Z,5644
2017-04-12T14:40:32.818Z,4680
2017-04-12T14:41:44.051Z,4068
2017-04-12T14:42:55.069Z,4356
2017-04-12T14:44:06.105Z,5048
2017-04-12T14:45:17.138Z,5428
2017-04-12T14:46:28.157Z,4916
2017-04-12T14:47:39.184Z,4328
2017-04-12T14:48:50.225Z,4148
2017-04-12T14:50:01.256Z,3812
2017-04-12T14:51:12.308Z,3520
2017-04-12T14:52:23.356Z,3588
2017-04-12T14:53:34.639Z,3480
2017-04-12T14:54:45.660Z,3448
2017-04-12T14:55:56.688Z,3696
2017-04-12T14:57:07.724Z,4220
2017-04-12T14:58:18.757Z,3996
2017-04-12T14:59:29.993Z,3172
2017-04-12T15:00:41.082Z,2292
2017-04-12T15:01:52.322Z,1864
2017-04-12T15:03:03.357Z,1928
2017-04-12T15:04:14.438Z,1920
2017-04-12T15:05:25.879Z,1896
2017-04-12T15:06:36.912Z,2004
2017-04-12T15:07:48.125Z,1888
2017-04-12T15:08:59.149Z,1636
2017-04-12T15:10:10.168Z,1476
2017-04-12T15:11:21.188Z,1540
2017-04-12T15:12:32.225Z,1664
2017-04-12T15:13:43.245Z,1680
2017-04-12T15:14:54.321Z,1748
2017-04-12T15:16:05.564Z,1548
2017-04-12T15:17:16.607Z,1184
2017-04-12T15:18:27.642Z,976
2017-04-12T15:19:38.872Z,900
2017-04-12T15:20:49.933Z,1052
2017-04-12T15:22:01.162Z,1124
2017-04-12T15:23:12.201Z,1120
2017-04-12T15:24:23.431Z,1604
2017-04-12T15:25:34.653Z,2228
2017-04-12T15:26:45.695Z,2392
2017-04-12T15:27:56.714Z,2144
2017-04-12T15:29:07.749Z,1716
2017-04-12T15:30:18.783Z,1472
2017-04-12T15:31:29.817Z,1312
2017-04-12T15:32:40.849Z,1228
2017-04-12T15:33:51.894Z,1256
2017-04-12T15:35:02.919Z,1524
2017-04-12T15:36:14.206Z,1688
2017-04-12T15:37:25.243Z,1928
2017-04-12T15:38:36.266Z,2188
2017-04-12T15:39:47.299Z,2044
2017-04-12T15:40:58.319Z,1972
2017-04-12T15:42:09.551Z,1972
2017-04-12T15:43:20.600Z,2068
2017-04-12T15:44:31.637Z,2236
2017-04-12T15:45:42.685Z,2472
2017-04-12T15:46:53.764Z,2460
2017-04-12T15:48:04.785Z,2188
2017-04-12T15:49:16.017Z,1748
2017-04-12T15:50:27.046Z,1476
2017-04-12T15:51:38.286Z,1348
2017-04-12T15:52:49.516Z,1568
2017-04-12T15:54:01.139Z,1724
2017-04-12T15:55:12.221Z,1736
2017-04-12T15:56:23.252Z,1540
2017-04-12T15:57:34.326Z,1360
2017-04-12T15:58:45.349Z,1456
2017-04-12T15:59:56.382Z,1640
2017-04-12T16:01:07.403Z,1692
2017-04-12T16:02:18.497Z,1696
2017-04-12T16:03:29.725Z,1708
2017-04-12T16:04:40.767Z,1552
2017-04-12T16:05:51.801Z,1352
2017-04-12T16:07:03.028Z,1148
2017-04-12T16:08:14.064Z,932
2017-04-12T16:09:25.090Z,860
2017-04-12T16:10:36.318Z,940
2017-04-12T16:11:47.339Z,1032
2017-04-12T16:12:58.572Z,1100
2017-04-12T16:14:10.263Z,1076
2017-04-12T16:15:21.295Z,976
2017-04-12T16:16:32.325Z,1028
2017-04-12T16:17:43.558Z,1096
2017-04-12T16:18:54.597Z,1056
2017-04-12T16:20:05.633Z,1028
2017-04-12T16:21:16.673Z,992
2017-04-12T16:22:27.710Z,1020
2017-04-12T16:23:38.942Z,1000
2017-04-12T16:24:50.267Z,836
2017-04-12T16:26:01.293Z,756
2017-04-12T16:27:12.328Z,772
2017-04-12T16:28:23.578Z,760
2017-04-12T16:29:34.817Z,700
2017-04-12T16:30:45.851Z,656
2017-04-12T16:31:56.874Z,604
2017-04-12T16:33:07.914Z,572
2017-04-12T16:34:18.946Z,584
2017-04-12T16:35:30.025Z,744
2017-04-12T16:36:41.057Z,1024
2017-04-12T16:37:52.082Z,1136
2017-04-12T16:39:03.111Z,1152
2017-04-12T16:40:14.142Z,1208
2017-04-12T16:41:25.366Z,1240
2017-04-12T16:42:36.396Z,1368
2017-04-12T16:43:47.415Z,1496
2017-04-12T16:44:58.445Z,1396
2017-04-12T16:46:09.681Z,1176
2017-04-12T16:47:20.699Z,1096
2017-04-12T16:48:31.731Z,1068
2017-04-12T16:49:42.759Z,1088
2017-04-12T16:50:53.789Z,1096
2017-04-12T16:52:05.067Z,952
2017-04-12T16:53:16.298Z,892
2017-04-12T16:54:27.321Z,856
2017-04-12T16:55:38.559Z,712
2017-04-12T16:56:49.590Z,588
2017-04-12T16:58:00.608Z,624
2017-04-12T16:59:11.631Z,724
2017-04-12T17:00:22.658Z,844
2017-04-12T17:01:33.889Z,1024
2017-04-12T17:02:44.965Z,1100
2017-04-12T17:03:56.191Z,1108
2017-04-12T17:05:07.216Z,1132